Time;durP1;ratioP1;P1;durP2;ratioP2;P2;SDS_P1;SDS_P2;PMS_P1;PMS_P2;Temp;Humidity;BMP_temperature;BMP_pressure;BME280_temperature;BME280_humidity;BME280_pressure;Samples;Min_cycle;Max_cycle;Signal;HPM_P1;HPM_P2
2022/09/09 00:02:10;;;;;;;;;;;13.90;99.90;;;;;;5006175;28;19993;-70
2022/09/09 00:04:37;;;;;;;;;;;13.90;99.90;;;;;;5005871;28;19965;-70
2022/09/09 00:07:05;;;;;;;;;;;13.90;99.90;;;;;;5028210;23;19921;-69
2022/09/09 00:09:37;;;;;;;;;;;13.80;99.90;;;;;;5064850;28;19985;-69
2022/09/09 00:12:07;;;;;;;;;;;13.80;99.90;;;;;;5065061;28;19963;-69
2022/09/09 00:14:40;;;;;;;;;;;13.80;99.90;;;;;;5064557;28;20230;-70
2022/09/09 00:17:10;;;;;;;;;;;13.80;99.90;;;;;;5059632;28;19921;-70
2022/09/09 00:19:41;;;;;;;;;;;13.80;99.90;;;;;;5045103;28;19921;-70
2022/09/09 00:22:15;;;;;;;;;;;13.80;99.90;;;;;;5044755;28;19944;-69
2022/09/09 00:24:43;;;;;;;;;;;13.70;99.90;;;;;;5044284;28;19921;-70
2022/09/09 00:27:15;;;;;;;;;;;13.70;99.90;;;;;;5044837;28;19989;-70
2022/09/09 00:29:46;;;;;;;;;;;13.70;99.90;;;;;;5044458;28;19928;-70
2022/09/09 00:32:13;;;;;;;;;;;13.60;99.90;;;;;;5045254;28;20157;-70
2022/09/09 00:34:43;;;;;;;;;;;13.60;99.90;;;;;;5044370;28;20116;-69
2022/09/09 00:37:10;;;;;;;;;;;13.50;99.90;;;;;;5044315;28;19988;-70
2022/09/09 00:39:39;;;;;;;;;;;13.50;99.90;;;;;;5044252;28;19960;-69
2022/09/09 00:42:13;;;;;;;;;;;13.50;99.90;;;;;;5044627;28;19925;-70
2022/09/09 00:44:47;;;;;;;;;;;13.50;99.90;;;;;;5044135;28;19921;-69
2022/09/09 00:47:27;;;;;;;;;;;13.50;99.90;;;;;;5044337;28;19921;-70
2022/09/09 00:50:00;;;;;;;;;;;13.50;99.90;;;;;;5044292;28;19921;-70
2022/09/09 00:52:31;;;;;;;;;;;13.40;99.90;;;;;;5043981;28;20216;-70
2022/09/09 00:55:04;;;;;;;;;;;13.40;99.90;;;;;;5044251;28;19929;-70
2022/09/09 00:57:31;;;;;;;;;;;13.40;99.90;;;;;;5043559;28;19989;-70
2022/09/09 00:59:59;;;;;;;;;;;13.40;99.90;;;;;;5044022;28;19929;-69
2022/09/09 01:02:29;;;;;;;;;;;13.40;99.90;;;;;;5044047;28;19928;-70
2022/09/09 01:04:59;;;;;;;;;;;13.40;99.90;;;;;;5043787;28;19921;-70
2022/09/09 01:07:25;;;;;;;;;;;13.40;99.90;;;;;;5043645;28;19928;-69
2022/09/09 01:09:55;;;;;;;;;;;13.40;99.90;;;;;;5044036;28;19988;-70
2022/09/09 01:12:25;;;;;;;;;;;13.40;99.90;;;;;;5043932;28;19928;-69
2022/09/09 01:14:53;;;;;;;;;;;13.30;99.90;;;;;;5043960;28;19975;-69
2022/09/09 01:17:22;;;;;;;;;;;13.30;99.90;;;;;;5044043;28;19921;-70
2022/09/09 01:19:56;;;;;;;;;;;13.30;99.90;;;;;;5044111;28;19963;-70
2022/09/09 01:22:26;;;;;;;;;;;13.30;99.90;;;;;;5043125;28;19995;-69
2022/09/09 01:25:12;;;;;;;;;;;13.30;99.90;;;;;;5043536;28;20164;-70
2022/09/09 01:27:40;;;;;;;;;;;13.30;99.90;;;;;;5043665;28;19984;-70
2022/09/09 01:30:09;;;;;;;;;;;13.20;99.90;;;;;;5043434;28;19952;-70
2022/09/09 01:32:39;;;;;;;;;;;13.20;99.90;;;;;;5043346;28;19980;-70
2022/09/09 01:35:07;;;;;;;;;;;13.20;99.90;;;;;;5043584;28;19984;-70
2022/09/09 01:37:33;;;;;;;;;;;13.20;99.90;;;;;;5043298;28;20115;-70
2022/09/09 01:40:00;;;;;;;;;;;13.20;99.90;;;;;;5043804;28;19921;-70
2022/09/09 01:42:27;;;;;;;;;;;13.20;99.90;;;;;;5043531;28;20116;-70
2022/09/09 01:44:55;;;;;;;;;;;13.10;99.90;;;;;;5042912;28;19984;-70
2022/09/09 01:47:21;;;;;;;;;;;13.10;99.90;;;;;;5043318;28;19984;-70
2022/09/09 01:49:48;;;;;;;;;;;13.10;99.90;;;;;;5043520;28;19986;-70
2022/09/09 01:52:15;;;;;;;;;;;13.10;99.90;;;;;;5043251;28;19953;-70
2022/09/09 01:54:41;;;;;;;;;;;13.10;99.90;;;;;;5042919;28;20280;-70
2022/09/09 01:57:13;;;;;;;;;;;13.10;99.90;;;;;;5043029;28;19976;-70
2022/09/09 01:59:46;;;;;;;;;;;13.10;99.90;;;;;;5043151;28;20211;-70
2022/09/09 02:02:18;;;;;;;;;;;13.10;99.90;;;;;;5042439;28;19921;-69
2022/09/09 02:04:46;;;;;;;;;;;13.10;99.90;;;;;;5051556;28;20183;-70
2022/09/09 02:07:22;;;;;;;;;;;13.00;99.90;;;;;;5051311;28;19921;-69
2022/09/09 02:09:52;;;;;;;;;;;13.00;99.90;;;;;;5057852;28;19980;-70
2022/09/09 02:12:21;;;;;;;;;;;13.00;99.90;;;;;;5055198;28;19921;-69
2022/09/09 02:14:50;;;;;;;;;;;13.00;99.90;;;;;;5056992;28;19943;-69
2022/09/09 02:17:20;;;;;;;;;;;13.00;99.90;;;;;;5053891;28;19921;-70
2022/09/09 02:19:49;;;;;;;;;;;12.90;99.90;;;;;;5057884;28;19921;-70
2022/09/09 02:22:16;;;;;;;;;;;12.90;99.90;;;;;;5067099;28;19921;-69
2022/09/09 02:24:45;;;;;;;;;;;12.90;99.90;;;;;;5058218;28;19927;-70
2022/09/09 02:27:12;;;;;;;;;;;12.80;99.90;;;;;;5061067;28;19921;-70
2022/09/09 02:29:41;;;;;;;;;;;12.80;99.90;;;;;;5066902;28;20159;-70
2022/09/09 02:32:11;;;;;;;;;;;12.80;99.90;;;;;;5067026;28;20131;-70
2022/09/09 02:34:40;;;;;;;;;;;12.80;99.90;;;;;;5060813;28;19921;-70
2022/09/09 02:37:07;;;;;;;;;;;12.80;99.90;;;;;;5058415;28;19992;-70
2022/09/09 02:39:34;;;;;;;;;;;12.80;99.90;;;;;;5055927;28;19983;-70
2022/09/09 02:42:03;;;;;;;;;;;12.90;99.90;;;;;;5046651;28;20208;-69
2022/09/09 02:44:30;;;;;;;;;;;12.90;99.90;;;;;;5046264;28;20116;-70
2022/09/09 02:47:04;;;;;;;;;;;12.90;99.90;;;;;;5046588;28;20223;-70
2022/09/09 02:49:34;;;;;;;;;;;13.00;99.90;;;;;;5046559;28;20208;-70
2022/09/09 02:52:05;;;;;;;;;;;12.90;99.90;;;;;;5046709;28;19921;-70
2022/09/09 02:54:32;;;;;;;;;;;12.90;99.90;;;;;;5046128;28;20144;-70
2022/09/09 02:57:02;;;;;;;;;;;12.90;99.90;;;;;;5046466;28;20120;-70
2022/09/09 02:59:30;;;;;;;;;;;13.00;99.90;;;;;;5046674;28;19928;-70
2022/09/09 03:01:56;;;;;;;;;;;13.00;99.90;;;;;;5031468;28;19960;-69
2022/09/09 03:04:24;;;;;;;;;;;13.00;99.90;;;;;;5026079;28;20090;-70
2022/09/09 03:06:51;;;;;;;;;;;13.00;99.90;;;;;;5029059;28;19960;-69
2022/09/09 03:09:18;;;;;;;;;;;13.00;99.90;;;;;;5045947;28;20279;-70
2022/09/09 03:11:45;;;;;;;;;;;13.10;99.90;;;;;;5046385;28;19996;-70
2022/09/09 03:14:12;;;;;;;;;;;13.10;99.90;;;;;;5045841;28;19996;-70
2022/09/09 03:16:38;;;;;;;;;;;13.10;99.90;;;;;;5045990;28;19927;-70
2022/09/09 03:19:06;;;;;;;;;;;13.10;99.90;;;;;;5045867;28;19993;-70
2022/09/09 03:21:33;;;;;;;;;;;13.10;99.90;;;;;;5045469;28;20234;-70
2022/09/09 03:23:59;;;;;;;;;;;13.10;99.90;;;;;;5045138;28;19936;-70
2022/09/09 03:26:27;;;;;;;;;;;13.10;99.90;;;;;;5045560;28;19927;-70
2022/09/09 03:28:54;;;;;;;;;;;13.10;99.90;;;;;;5045819;28;19984;-70
2022/09/09 03:31:21;;;;;;;;;;;13.20;99.90;;;;;;5045974;28;20171;-70
2022/09/09 03:33:47;;;;;;;;;;;13.20;99.90;;;;;;5045484;28;19921;-69
2022/09/09 03:36:14;;;;;;;;;;;13.20;99.90;;;;;;5045410;28;19929;-70
2022/09/09 03:38:41;;;;;;;;;;;13.20;99.90;;;;;;5045595;28;19925;-70
2022/09/09 03:41:08;;;;;;;;;;;13.20;99.90;;;;;;5045854;28;19925;-70
2022/09/09 03:43:37;;;;;;;;;;;13.10;99.90;;;;;;5045394;28;19944;-70
2022/09/09 03:46:04;;;;;;;;;;;13.10;99.90;;;;;;5045642;28;19921;-70
2022/09/09 03:48:30;;;;;;;;;;;13.00;99.90;;;;;;5045162;28;19993;-70
2022/09/09 03:51:00;;;;;;;;;;;13.10;99.90;;;;;;5045494;28;20115;-70
2022/09/09 03:53:27;;;;;;;;;;;13.00;99.90;;;;;;5045227;28;19936;-70
2022/09/09 03:55:55;;;;;;;;;;;13.00;99.90;;;;;;5045288;28;19921;-70
2022/09/09 03:58:23;;;;;;;;;;;13.00;99.90;;;;;;5045242;28;20266;-69
2022/09/09 04:00:55;;;;;;;;;;;13.00;99.90;;;;;;5045382;28;19925;-70
2022/09/09 04:03:24;;;;;;;;;;;13.00;99.90;;;;;;5043433;28;19927;-70
2022/09/09 04:05:51;;;;;;;;;;;13.00;99.90;;;;;;5056225;28;19963;-70
2022/09/09 04:08:18;;;;;;;;;;;13.00;99.90;;;;;;5062253;28;19921;-72
2022/09/09 04:10:45;;;;;;;;;;;13.00;99.90;;;;;;5056930;28;19963;-70
2022/09/09 04:13:13;;;;;;;;;;;12.90;99.90;;;;;;5064889;28;19920;-69
2022/09/09 04:15:43;;;;;;;;;;;12.90;99.90;;;;;;5055312;28;20386;-69
2022/09/09 04:18:11;;;;;;;;;;;12.90;99.90;;;;;;5052767;28;19983;-69
2022/09/09 04:20:38;;;;;;;;;;;12.90;99.90;;;;;;5053592;28;19921;-70
2022/09/09 04:23:05;;;;;;;;;;;12.90;99.90;;;;;;5045891;28;19989;-70
2022/09/09 04:25:32;;;;;;;;;;;12.80;99.90;;;;;;5044553;28;19921;-70
2022/09/09 04:27:59;;;;;;;;;;;12.80;99.90;;;;;;5043219;28;19989;-70
2022/09/09 04:30:27;;;;;;;;;;;12.80;99.90;;;;;;5039963;28;19992;-70
2022/09/09 04:32:53;;;;;;;;;;;12.70;99.90;;;;;;5054350;28;19928;-70
2022/09/09 04:35:21;;;;;;;;;;;12.70;99.90;;;;;;5044863;28;19927;-70
2022/09/09 04:37:48;;;;;;;;;;;12.70;99.90;;;;;;5056208;28;19983;-70
2022/09/09 04:40:15;;;;;;;;;;;12.70;99.90;;;;;;5064581;28;19920;-69
2022/09/09 04:42:43;;;;;;;;;;;12.70;99.90;;;;;;5064318;28;19995;-69
2022/09/09 04:45:11;;;;;;;;;;;12.70;99.90;;;;;;5056048;28;19921;-70
2022/09/09 04:47:37;;;;;;;;;;;12.70;99.90;;;;;;5053896;28;19921;-69
2022/09/09 04:50:05;;;;;;;;;;;12.70;99.90;;;;;;5049385;28;19928;-70
2022/09/09 04:52:34;;;;;;;;;;;12.70;99.90;;;;;;5055883;28;19920;-69
2022/09/09 04:55:01;;;;;;;;;;;12.70;99.90;;;;;;5063613;28;19996;-70
2022/09/09 04:57:28;;;;;;;;;;;12.60;99.90;;;;;;5052629;28;19921;-69
2022/09/09 04:59:55;;;;;;;;;;;12.60;99.90;;;;;;5052521;28;19925;-70
2022/09/09 05:02:21;;;;;;;;;;;12.60;99.90;;;;;;5052024;28;19921;-69
2022/09/09 05:04:49;;;;;;;;;;;12.60;99.90;;;;;;5057824;28;19968;-70
2022/09/09 05:07:16;;;;;;;;;;;12.70;99.90;;;;;;5049163;28;20116;-70
2022/09/09 05:09:45;;;;;;;;;;;12.60;99.90;;;;;;5040676;28;19988;-70
2022/09/09 05:12:11;;;;;;;;;;;12.70;99.90;;;;;;5039150;28;19921;-70
2022/09/09 05:14:38;;;;;;;;;;;12.70;99.90;;;;;;5041762;28;19921;-68
2022/09/09 05:17:05;;;;;;;;;;;12.70;99.90;;;;;;5037764;28;19920;-69
2022/09/09 05:19:31;;;;;;;;;;;12.70;99.90;;;;;;5039814;28;19984;-69
2022/09/09 05:21:58;;;;;;;;;;;12.70;99.90;;;;;;5029847;28;19981;-69
2022/09/09 05:24:25;;;;;;;;;;;12.80;99.90;;;;;;5023846;28;19921;-70
2022/09/09 05:26:53;;;;;;;;;;;12.80;99.90;;;;;;5024020;28;19928;-70
2022/09/09 05:29:19;;;;;;;;;;;12.80;99.90;;;;;;5027577;28;19933;-70
2022/09/09 05:31:46;;;;;;;;;;;12.80;99.90;;;;;;5046139;28;20226;-70
2022/09/09 05:34:13;;;;;;;;;;;12.80;99.90;;;;;;5037687;28;19928;-70
2022/09/09 05:36:40;;;;;;;;;;;12.70;99.90;;;;;;5041202;28;19927;-71
2022/09/09 05:39:06;;;;;;;;;;;12.80;99.90;;;;;;5028530;28;20204;-70
2022/09/09 05:41:34;;;;;;;;;;;12.80;99.90;;;;;;5033976;28;20004;-70
2022/09/09 05:44:03;;;;;;;;;;;12.80;99.90;;;;;;5042049;28;19921;-68
2022/09/09 05:46:30;;;;;;;;;;;12.80;99.90;;;;;;5043546;28;19960;-72
2022/09/09 05:48:58;;;;;;;;;;;12.80;99.90;;;;;;5043412;28;20255;-68
2022/09/09 05:51:26;;;;;;;;;;;12.80;99.90;;;;;;5043439;28;19971;-69
2022/09/09 05:53:54;;;;;;;;;;;12.80;99.90;;;;;;5042983;28;19988;-68
2022/09/09 05:56:23;;;;;;;;;;;12.90;99.90;;;;;;5042995;28;19921;-69
2022/09/09 05:58:51;;;;;;;;;;;12.90;99.90;;;;;;5042433;28;20247;-69
2022/09/09 06:01:20;;;;;;;;;;;12.90;99.90;;;;;;5043145;28;19928;-72
2022/09/09 06:03:47;;;;;;;;;;;13.00;99.90;;;;;;5042768;28;20120;-69
2022/09/09 06:06:15;;;;;;;;;;;13.10;99.90;;;;;;5043096;28;19929;-69
2022/09/09 06:08:43;;;;;;;;;;;13.10;99.90;;;;;;5043188;28;19998;-69
2022/09/09 06:11:11;;;;;;;;;;;13.00;99.90;;;;;;5042929;28;19984;-68
2022/09/09 06:13:39;;;;;;;;;;;13.10;99.90;;;;;;5043053;28;19921;-68
2022/09/09 06:16:07;;;;;;;;;;;13.20;99.90;;;;;;5043373;28;19956;-68
2022/09/09 06:18:35;;;;;;;;;;;13.20;99.90;;;;;;5043517;28;19945;-71
2022/09/09 06:21:03;;;;;;;;;;;13.20;99.90;;;;;;5043475;28;19928;-69
2022/09/09 06:23:30;;;;;;;;;;;13.30;99.90;;;;;;5043293;28;19927;-69
2022/09/09 06:26:05;;;;;;;;;;;13.40;99.90;;;;;;5043175;28;19992;-69
2022/09/09 06:28:32;;;;;;;;;;;13.50;99.90;;;;;;5043305;28;19928;-70
2022/09/09 06:30:59;;;;;;;;;;;13.50;99.90;;;;;;5043220;28;20259;-69
2022/09/09 06:33:26;;;;;;;;;;;13.70;99.90;;;;;;5042892;28;19929;-68
2022/09/09 06:35:54;;;;;;;;;;;13.70;99.90;;;;;;5042444;28;20148;-68
2022/09/09 06:38:21;;;;;;;;;;;13.80;99.90;;;;;;5042832;28;19921;-69
2022/09/09 06:40:51;;;;;;;;;;;13.90;99.90;;;;;;5042909;28;19928;-68
2022/09/09 06:43:19;;;;;;;;;;;14.00;99.90;;;;;;5042502;28;20231;-71
2022/09/09 06:45:53;;;;;;;;;;;14.20;99.90;;;;;;5042713;28;19921;-69
2022/09/09 06:48:19;;;;;;;;;;;14.30;99.90;;;;;;5042294;28;19922;-69
2022/09/09 06:50:46;;;;;;;;;;;14.40;99.90;;;;;;5042641;28;19921;-69
2022/09/09 06:53:16;;;;;;;;;;;14.50;99.90;;;;;;5042748;28;19959;-68
2022/09/09 06:55:44;;;;;;;;;;;14.60;99.90;;;;;;5024791;28;19996;-69
2022/09/09 06:58:11;;;;;;;;;;;14.70;99.90;;;;;;5026308;28;19921;-69
2022/09/09 07:00:38;;;;;;;;;;;14.80;99.90;;;;;;5034912;28;20268;-68
2022/09/09 07:03:05;;;;;;;;;;;15.00;99.90;;;;;;5046172;28;19921;-69
2022/09/09 07:05:31;;;;;;;;;;;15.00;99.90;;;;;;5046137;28;19921;-68
2022/09/09 07:07:58;;;;;;;;;;;15.20;99.90;;;;;;5046108;28;19921;-69
2022/09/09 07:10:26;;;;;;;;;;;15.30;99.90;;;;;;5046123;28;19921;-71
2022/09/09 07:12:53;;;;;;;;;;;15.40;99.90;;;;;;5045999;28;19932;-71
2022/09/09 07:15:20;;;;;;;;;;;15.40;99.90;;;;;;5045961;28;20057;-71
2022/09/09 07:17:46;;;;;;;;;;;15.50;99.90;;;;;;5046230;28;20094;-71
2022/09/09 07:20:14;;;;;;;;;;;15.60;99.90;;;;;;5046249;28;19927;-71
2022/09/09 07:22:41;;;;;;;;;;;15.70;99.90;;;;;;5045642;28;20180;-71
2022/09/09 07:25:08;;;;;;;;;;;15.70;99.90;;;;;;5045693;28;20176;-71
2022/09/09 07:27:36;;;;;;;;;;;15.80;99.90;;;;;;5045760;28;19921;-71
2022/09/09 07:30:03;;;;;;;;;;;15.90;99.90;;;;;;5045645;28;20292;-71
2022/09/09 07:32:30;;;;;;;;;;;16.10;99.90;;;;;;5045843;28;19925;-71
2022/09/09 07:34:57;;;;;;;;;;;16.20;99.90;;;;;;5045231;28;19921;-71
2022/09/09 07:37:24;;;;;;;;;;;16.20;99.90;;;;;;5045724;28;19928;-71
2022/09/09 07:39:51;;;;;;;;;;;16.30;99.90;;;;;;5045557;28;19992;-71
2022/09/09 07:42:19;;;;;;;;;;;16.40;99.90;;;;;;5045545;28;20111;-71
2022/09/09 07:44:47;;;;;;;;;;;16.60;99.90;;;;;;5044990;28;20254;-71
2022/09/09 07:47:13;;;;;;;;;;;16.60;99.90;;;;;;5045674;28;19921;-71
2022/09/09 07:49:40;;;;;;;;;;;16.70;99.90;;;;;;5045683;28;19943;-71
2022/09/09 07:52:07;;;;;;;;;;;16.80;99.90;;;;;;5033952;28;19927;-71
2022/09/09 07:54:33;;;;;;;;;;;17.00;99.90;;;;;;5045143;28;19984;-71
2022/09/09 07:57:00;;;;;;;;;;;17.10;99.90;;;;;;5045329;28;19996;-71
2022/09/09 07:59:29;;;;;;;;;;;17.20;99.90;;;;;;5045486;28;20234;-71
2022/09/09 08:01:58;;;;;;;;;;;17.30;99.90;;;;;;5045504;28;19928;-71
2022/09/09 08:04:25;;;;;;;;;;;17.40;99.90;;;;;;5044481;28;19921;-71
2022/09/09 08:06:54;;;;;;;;;;;17.50;99.90;;;;;;5044852;28;19986;-71
2022/09/09 08:09:21;;;;;;;;;;;17.50;99.90;;;;;;5044875;28;19992;-70
2022/09/09 08:11:48;;;;;;;;;;;17.60;99.90;;;;;;5045337;28;19988;-71
2022/09/09 08:14:15;;;;;;;;;;;17.70;99.90;;;;;;5044800;28;19921;-71
2022/09/09 08:16:42;;;;;;;;;;;17.80;99.90;;;;;;5045269;28;20194;-71
2022/09/09 08:19:11;;;;;;;;;;;17.90;99.90;;;;;;5044875;28;19921;-71
2022/09/09 08:21:39;;;;;;;;;;;18.00;99.90;;;;;;5044371;28;19960;-71
2022/09/09 08:24:06;;;;;;;;;;;18.10;99.90;;;;;;5034515;28;19922;-71
2022/09/09 08:26:34;;;;;;;;;;;18.10;99.90;;;;;;5033302;28;19960;-71
2022/09/09 08:29:02;;;;;;;;;;;18.20;99.90;;;;;;5044748;28;19948;-71
2022/09/09 08:31:29;;;;;;;;;;;18.20;99.90;;;;;;5045144;28;19921;-71
2022/09/09 08:33:56;;;;;;;;;;;18.30;99.90;;;;;;5044915;28;19928;-71
2022/09/09 08:36:26;;;;;;;;;;;18.40;99.90;;;;;;5044309;28;19921;-71
2022/09/09 08:38:54;;;;;;;;;;;18.40;99.90;;;;;;5024678;28;19968;-71
2022/09/09 08:41:37;;;;;;;;;;;18.50;99.90;;;;;;5024854;28;20113;-71
2022/09/09 08:44:07;;;;;;;;;;;18.50;99.90;;;;;;5039570;28;19992;-71
2022/09/09 08:46:36;;;;;;;;;;;18.60;99.90;;;;;;5044025;28;20132;-71
2022/09/09 08:49:07;;;;;;;;;;;18.60;99.90;;;;;;5044408;28;19921;-71
2022/09/09 08:51:35;;;;;;;;;;;18.60;99.90;;;;;;5043969;28;19927;-71
2022/09/09 08:54:03;;;;;;;;;;;18.70;99.90;;;;;;5044101;28;20208;-71
2022/09/09 08:56:32;;;;;;;;;;;18.80;99.90;;;;;;5044269;28;19921;-71
2022/09/09 08:59:01;;;;;;;;;;;18.80;99.90;;;;;;5044233;28;19921;-71
2022/09/09 09:01:35;;;;;;;;;;;18.90;99.90;;;;;;5044089;28;19997;-71
2022/09/09 09:04:08;;;;;;;;;;;18.90;99.90;;;;;;5044117;28;19921;-71
2022/09/09 09:06:44;;;;;;;;;;;19.00;99.90;;;;;;5043720;28;19921;-71
2022/09/09 09:09:14;;;;;;;;;;;19.10;99.90;;;;;;5044076;28;19921;-71
2022/09/09 09:11:44;;;;;;;;;;;19.20;99.90;;;;;;5043893;28;19921;-71
2022/09/09 09:14:12;;;;;;;;;;;19.30;99.90;;;;;;5043935;28;19928;-71
2022/09/09 09:16:41;;;;;;;;;;;19.40;99.90;;;;;;5043801;28;19992;-71
2022/09/09 09:19:09;;;;;;;;;;;19.60;99.90;;;;;;5043531;28;19987;-71
2022/09/09 09:21:40;;;;;;;;;;;19.60;99.90;;;;;;5043451;28;19921;-71
2022/09/09 09:24:17;;;;;;;;;;;19.70;99.90;;;;;;5043513;28;19952;-71
2022/09/09 09:26:44;;;;;;;;;;;19.70;99.90;;;;;;5043835;28;20144;-71
2022/09/09 09:29:12;;;;;;;;;;;19.70;99.90;;;;;;5043958;28;19967;-71
2022/09/09 09:31:39;;;;;;;;;;;19.70;99.90;;;;;;5043588;28;19921;-71
2022/09/09 09:34:06;;;;;;;;;;;19.70;99.90;;;;;;5043049;28;19983;-71
2022/09/09 09:36:40;;;;;;;;;;;19.70;99.90;;;;;;5042444;28;19933;-71
2022/09/09 09:39:06;;;;;;;;;;;19.80;99.90;;;;;;5043621;28;19929;-71
2022/09/09 09:41:36;;;;;;;;;;;19.90;99.90;;;;;;5043688;28;19988;-71
2022/09/09 09:44:03;;;;;;;;;;;20.00;99.90;;;;;;5043217;28;20163;-71
2022/09/09 09:46:30;;;;;;;;;;;20.00;99.90;;;;;;5043321;28;19921;-71
2022/09/09 09:49:00;;;;;;;;;;;20.10;99.90;;;;;;5043086;28;19985;-71
2022/09/09 09:51:27;;;;;;;;;;;20.00;99.90;;;;;;5042920;28;19964;-71
2022/09/09 09:53:54;;;;;;;;;;;20.10;99.90;;;;;;5043120;28;20212;-71
2022/09/09 09:56:28;;;;;;;;;;;20.00;99.90;;;;;;5043434;28;19947;-71
2022/09/09 09:58:56;;;;;;;;;;;20.00;99.90;;;;;;5043286;28;19997;-71
2022/09/09 10:01:25;;;;;;;;;;;20.00;99.90;;;;;;5043314;28;20009;-71
2022/09/09 10:03:52;;;;;;;;;;;19.90;99.90;;;;;;5042590;28;19921;-71
2022/09/09 10:06:29;;;;;;;;;;;19.80;99.90;;;;;;5042685;28;19921;-71
2022/09/09 10:08:56;;;;;;;;;;;19.80;99.90;;;;;;5043233;28;19988;-71
2022/09/09 10:11:27;;;;;;;;;;;19.90;99.90;;;;;;5043050;28;19951;-71
2022/09/09 10:14:02;;;;;;;;;;;20.00;99.90;;;;;;5042796;28;19992;-71
2022/09/09 10:16:41;;;;;;;;;;;20.20;99.90;;;;;;5043072;28;19959;-71
2022/09/09 10:19:12;;;;;;;;;;;20.40;99.90;;;;;;5042983;28;19927;-71
2022/09/09 10:21:57;;;;;;;;;;;20.70;99.90;;;;;;5043080;28;19988;-71
2022/09/09 10:24:49;;;;;;;;;;;20.90;99.90;;;;;;5042925;28;19926;-71
2022/09/09 10:27:19;;;;;;;;;;;21.10;99.90;;;;;;5023667;28;19927;-71
2022/09/09 10:30:04;;;;;;;;;;;21.30;99.90;;;;;;5043529;28;19927;-71
2022/09/09 10:41:47;;;;;;;;;;;20.70;99.90;;;;;;4985678;28;19985;-71
2022/09/09 10:47:42;;;;;;;;;;;20.60;99.90;;;;;;4966272;29;19930;-71
2022/09/09 10:50:17;;;;;;;;;;;20.50;99.90;;;;;;4966586;29;19922;-71
2022/09/09 10:52:55;;;;;;;;;;;20.60;99.90;;;;;;5026072;28;19928;-71
2022/09/09 10:55:26;;;;;;;;;;;20.80;99.90;;;;;;5046916;28;19921;-71
2022/09/09 10:57:58;;;;;;;;;;;21.10;99.90;;;;;;5046491;28;19921;-69
2022/09/09 11:00:25;;;;;;;;;;;21.20;99.90;;;;;;5046118;28;19988;-72
2022/09/09 11:02:54;;;;;;;;;;;21.10;99.90;;;;;;5045899;28;19992;-72
2022/09/09 11:05:22;;;;;;;;;;;21.00;99.90;;;;;;5043477;28;19992;-71
2022/09/09 11:07:52;;;;;;;;;;;20.90;99.90;;;;;;5026474;28;19921;-69
2022/09/09 11:10:23;;;;;;;;;;;20.80;99.90;;;;;;5026176;28;19929;-71
2022/09/09 11:12:51;;;;;;;;;;;20.80;99.90;;;;;;5042465;28;19980;-72
2022/09/09 11:15:21;;;;;;;;;;;20.80;99.90;;;;;;5046118;28;19925;-72
2022/09/09 11:17:50;;;;;;;;;;;20.90;99.90;;;;;;5046467;28;20124;-72
2022/09/09 11:20:17;;;;;;;;;;;20.90;99.90;;;;;;5045990;28;19921;-72
2022/09/09 11:22:46;;;;;;;;;;;20.90;99.90;;;;;;5045366;28;19921;-71
2022/09/09 11:25:16;;;;;;;;;;;21.00;99.90;;;;;;5045878;28;19921;-71
2022/09/09 11:27:57;;;;;;;;;;;21.10;99.90;;;;;;5045737;28;19921;-72
2022/09/09 11:30:27;;;;;;;;;;;21.30;99.90;;;;;;5046295;28;20220;-72
2022/09/09 11:33:02;;;;;;;;;;;21.50;99.90;;;;;;5044673;28;19920;-72
2022/09/09 11:35:34;;;;;;;;;;;21.90;99.90;;;;;;5044847;28;19984;-72
2022/09/09 11:38:11;;;;;;;;;;;22.30;99.90;;;;;;5045543;28;20187;-72
2022/09/09 11:40:38;;;;;;;;;;;22.60;99.90;;;;;;5045304;28;19921;-72
2022/09/09 11:43:06;;;;;;;;;;;22.90;99.90;;;;;;5045020;28;19921;-73
2022/09/09 11:45:35;;;;;;;;;;;23.10;99.90;;;;;;5044797;28;19921;-72
2022/09/09 11:48:03;;;;;;;;;;;23.10;99.90;;;;;;5045036;28;19968;-71
2022/09/09 11:50:31;;;;;;;;;;;23.10;99.90;;;;;;5045824;28;20175;-72
2022/09/09 11:53:07;;;;;;;;;;;23.10;99.90;;;;;;5045173;28;19988;-71
2022/09/09 11:55:34;;;;;;;;;;;23.00;99.90;;;;;;5045176;28;19921;-73
2022/09/09 11:58:04;;;;;;;;;;;23.00;99.90;;;;;;5045372;28;19928;-73
2022/09/09 12:00:37;;;;;;;;;;;22.90;99.90;;;;;;5045164;28;20251;-72
2022/09/09 12:03:05;;;;;;;;;;;22.80;99.90;;;;;;5045173;28;20159;-71
2022/09/09 12:05:44;;;;;;;;;;;22.60;99.90;;;;;;5045630;28;19921;-72
2022/09/09 12:15:04;;;;;;;;;;;20.70;99.90;;;;;;5014870;28;19918;-90
2022/09/09 12:48:54;;;;;;;;;;;19.80;99.90;;;;;;4778831;29;20162;-89
2022/09/09 13:00:31;;;;;;;;;;;21.00;99.90;;;;;;4890179;29;19919;-89
2022/09/09 13:02:58;;;;;;;;;;;21.10;99.90;;;;;;4940830;29;19958;-89
2022/09/09 13:05:27;;;;;;;;;;;21.10;99.90;;;;;;4947063;28;19942;-89
2022/09/09 13:08:01;;;;;;;;;;;21.00;99.90;;;;;;5044797;28;20181;-88
2022/09/09 13:10:29;;;;;;;;;;;20.90;99.90;;;;;;5049086;28;20124;-89
2022/09/09 13:12:58;;;;;;;;;;;20.80;99.90;;;;;;5063097;28;19921;-89
2022/09/09 13:15:27;;;;;;;;;;;20.70;99.90;;;;;;5078086;28;19991;-89
2022/09/09 13:17:54;;;;;;;;;;;20.60;99.90;;;;;;5082773;28;19973;-90
2022/09/09 13:20:22;;;;;;;;;;;20.50;99.90;;;;;;5084422;28;19920;-88
2022/09/09 13:22:52;;;;;;;;;;;20.40;99.90;;;;;;5086537;28;19948;-87
2022/09/09 13:25:21;;;;;;;;;;;20.30;99.90;;;;;;5081805;28;19956;-90
2022/09/09 13:28:03;;;;;;;;;;;20.30;99.90;;;;;;5083118;28;20172;-89
2022/09/09 13:30:32;;;;;;;;;;;20.20;99.90;;;;;;5078888;28;19999;-90
2022/09/09 13:33:06;;;;;;;;;;;20.10;99.90;;;;;;5085493;28;19928;-88
2022/09/09 13:35:33;;;;;;;;;;;20.10;99.90;;;;;;5058990;28;20296;-90
2022/09/09 13:38:07;;;;;;;;;;;19.90;99.90;;;;;;5062028;28;19955;-90
2022/09/09 13:40:34;;;;;;;;;;;19.80;99.90;;;;;;5061457;28;20178;-89
2022/09/09 13:43:02;;;;;;;;;;;19.80;99.90;;;;;;5060532;28;20124;-89
2022/09/09 13:45:28;;;;;;;;;;;19.70;99.90;;;;;;5063130;28;19921;-90
2022/09/09 13:47:56;;;;;;;;;;;19.60;99.90;;;;;;5062939;28;19932;-91
2022/09/09 13:50:23;;;;;;;;;;;19.40;99.90;;;;;;5063967;28;19928;-91
2022/09/09 13:52:51;;;;;;;;;;;19.30;99.90;;;;;;5073097;28;19940;-91
2022/09/09 13:55:21;;;;;;;;;;;19.10;99.90;;;;;;5066257;28;19920;-89
2022/09/09 13:57:51;;;;;;;;;;;19.00;99.90;;;;;;5064547;28;19921;-89
2022/09/09 14:00:55;;;;;;;;;;;18.90;99.90;;;;;;5063313;28;19928;-89
2022/09/09 14:03:22;;;;;;;;;;;18.50;99.90;;;;;;5064066;28;19941;-88
2022/09/09 14:05:49;;;;;;;;;;;18.30;99.90;;;;;;5064124;28;19924;-90
2022/09/09 14:08:21;;;;;;;;;;;18.20;99.90;;;;;;5066739;28;19921;-87
2022/09/09 14:10:50;;;;;;;;;;;18.00;99.90;;;;;;5063567;28;19984;-88
2022/09/09 14:13:20;;;;;;;;;;;17.90;99.90;;;;;;5064260;28;19927;-90
2022/09/09 14:15:48;;;;;;;;;;;17.70;99.90;;;;;;5062967;28;19925;-89
2022/09/09 14:18:16;;;;;;;;;;;17.40;99.90;;;;;;5062846;28;19956;-89
2022/09/09 14:20:42;;;;;;;;;;;17.40;99.90;;;;;;5063555;28;19929;-88
2022/09/09 14:23:14;;;;;;;;;;;17.30;99.90;;;;;;5060141;28;19928;-89
2022/09/09 14:25:41;;;;;;;;;;;17.20;99.90;;;;;;5058597;28;20235;-90
2022/09/09 14:28:13;;;;;;;;;;;17.10;99.90;;;;;;5062879;28;19921;-88
2022/09/09 14:30:41;;;;;;;;;;;17.20;99.90;;;;;;5063168;28;20001;-89
2022/09/09 14:33:11;;;;;;;;;;;17.20;99.90;;;;;;5062339;28;19921;-89
2022/09/09 14:35:38;;;;;;;;;;;17.50;99.90;;;;;;5063640;28;19991;-88
2022/09/09 14:38:05;;;;;;;;;;;17.90;99.90;;;;;;5061941;28;19921;-89
2022/09/09 14:40:33;;;;;;;;;;;18.20;99.90;;;;;;5062382;28;20176;-89
2022/09/09 14:43:00;;;;;;;;;;;18.30;99.90;;;;;;5061447;28;19925;-90
2022/09/09 14:45:28;;;;;;;;;;;18.50;99.90;;;;;;5059683;28;19997;-89
2022/09/09 14:47:55;;;;;;;;;;;19.00;99.90;;;;;;5065313;28;19921;-89
2022/09/09 14:50:22;;;;;;;;;;;19.40;99.90;;;;;;5063234;28;19936;-89
2022/09/09 14:52:50;;;;;;;;;;;19.90;99.90;;;;;;5061946;28;20252;-89
2022/09/09 14:55:17;;;;;;;;;;;20.40;99.90;;;;;;5060952;28;19959;-90
2022/09/09 14:57:45;;;;;;;;;;;20.80;99.90;;;;;;5073166;28;19991;-89
2022/09/09 15:00:12;;;;;;;;;;;21.10;99.90;;;;;;5077395;28;19929;-90
2022/09/09 15:02:40;;;;;;;;;;;21.50;99.90;;;;;;5062902;28;20173;-88
2022/09/09 15:05:07;;;;;;;;;;;21.90;99.90;;;;;;5066540;28;19928;-89
2022/09/09 15:07:34;;;;;;;;;;;22.10;99.90;;;;;;5063659;28;19920;-91
2022/09/09 15:10:00;;;;;;;;;;;22.20;99.90;;;;;;5063249;28;19941;-89
2022/09/09 15:12:28;;;;;;;;;;;22.40;99.90;;;;;;5063496;28;19944;-91
2022/09/09 15:14:55;;;;;;;;;;;22.40;99.90;;;;;;5062294;28;19921;-90
2022/09/09 15:17:22;;;;;;;;;;;22.20;99.90;;;;;;5060440;28;19944;-91
2022/09/09 15:19:50;;;;;;;;;;;22.00;99.90;;;;;;5063967;28;19936;-89
2022/09/09 15:22:26;;;;;;;;;;;21.70;99.90;;;;;;5064289;28;19920;-90
2022/09/09 15:24:53;;;;;;;;;;;21.40;99.90;;;;;;5065149;28;19963;-90
2022/09/09 15:27:23;;;;;;;;;;;21.20;99.90;;;;;;5065910;28;19963;-91